sensor_id;sensor_type;location;lat;lon;timestamp;pressure;altitude;pressure_sealevel;temperature;humidity
75006;BME280;63553;51.814;4.600;2023-07-20T00:02:14;101617.38;;;21.60;63.01
75006;BME280;63553;51.814;4.600;2023-07-20T00:04:40;101615.09;;;21.47;62.99
75006;BME280;63553;51.814;4.600;2023-07-20T00:07:05;101613.41;;;21.42;62.85
75006;BME280;63553;51.814;4.600;2023-07-20T00:09:31;101625.09;;;19.91;66.14
75006;BME280;63553;51.814;4.600;2023-07-20T00:11:56;101622.81;;;20.66;65.67
75006;BME280;63553;51.814;4.600;2023-07-20T00:14:22;101624.16;;;21.33;63.92
75006;BME280;63553;51.814;4.600;2023-07-20T00:16:49;101622.59;;;21.58;63.01
75006;BME280;63553;51.814;4.600;2023-07-20T00:19:20;101616.75;;;21.48;62.92
75006;BME280;63553;51.814;4.600;2023-07-20T00:21:45;101610.00;;;21.56;62.67
75006;BME280;63553;51.814;4.600;2023-07-20T00:24:11;101618.09;;;21.80;62.04
75006;BME280;63553;51.814;4.600;2023-07-20T00:26:36;101622.75;;;21.92;61.46
75006;BME280;63553;51.814;4.600;2023-07-20T00:29:02;101620.94;;;22.03;60.94
75006;BME280;63553;51.814;4.600;2023-07-20T00:31:28;101614.94;;;21.36;62.16
75006;BME280;63553;51.814;4.600;2023-07-20T00:33:54;101619.03;;;20.78;63.35
75006;BME280;63553;51.814;4.600;2023-07-20T00:36:19;101612.50;;;20.96;64.40
75006;BME280;63553;51.814;4.600;2023-07-20T00:38:45;101612.53;;;20.39;64.12
75006;BME280;63553;51.814;4.600;2023-07-20T00:41:10;101622.63;;;19.89;66.73
75006;BME280;63553;51.814;4.600;2023-07-20T00:43:35;101626.06;;;20.14;67.05
75006;BME280;63553;51.814;4.600;2023-07-20T00:46:01;101623.25;;;20.87;64.91
75006;BME280;63553;51.814;4.600;2023-07-20T00:48:28;101621.75;;;20.74;65.30
75006;BME280;63553;51.814;4.600;2023-07-20T00:50:54;101623.41;;;21.14;64.03
75006;BME280;63553;51.814;4.600;2023-07-20T00:53:20;101632.41;;;20.81;62.58
75006;BME280;63553;51.814;4.600;2023-07-20T00:55:46;101630.47;;;20.66;63.73
75006;BME280;63553;51.814;4.600;2023-07-20T00:58:12;101626.75;;;21.19;63.85
75006;BME280;63553;51.814;4.600;2023-07-20T01:00:37;101623.03;;;20.77;63.47
75006;BME280;63553;51.814;4.600;2023-07-20T01:03:02;101623.75;;;20.35;66.28
75006;BME280;63553;51.814;4.600;2023-07-20T01:05:38;101633.91;;;20.05;65.91
75006;BME280;63553;51.814;4.600;2023-07-20T01:08:24;101636.22;;;19.53;68.08
75006;BME280;63553;51.814;4.600;2023-07-20T01:11:22;101632.03;;;20.63;65.68
75006;BME280;63553;51.814;4.600;2023-07-20T01:13:49;101638.91;;;21.23;63.95
75006;BME280;63553;51.814;4.600;2023-07-20T01:16:15;101642.38;;;21.13;63.96
75006;BME280;63553;51.814;4.600;2023-07-20T01:18:40;101642.78;;;21.34;63.02
75006;BME280;63553;51.814;4.600;2023-07-20T01:21:09;101639.25;;;20.99;62.39
75006;BME280;63553;51.814;4.600;2023-07-20T01:24:03;101639.38;;;20.68;64.21
75006;BME280;63553;51.814;4.600;2023-07-20T01:26:59;101644.22;;;20.13;66.06
75006;BME280;63553;51.814;4.600;2023-07-20T01:29:36;101634.91;;;20.47;66.21
75006;BME280;63553;51.814;4.600;2023-07-20T01:32:08;101635.97;;;19.73;66.05
75006;BME280;63553;51.814;4.600;2023-07-20T01:34:35;101641.94;;;20.03;67.64
75006;BME280;63553;51.814;4.600;2023-07-20T01:37:02;101642.66;;;20.00;67.00
75006;BME280;63553;51.814;4.600;2023-07-20T01:39:28;101639.69;;;20.82;64.94
75006;BME280;63553;51.814;4.600;2023-07-20T01:41:54;101635.00;;;21.09;63.78
75006;BME280;63553;51.814;4.600;2023-07-20T01:44:20;101633.31;;;21.27;62.91
75006;BME280;63553;51.814;4.600;2023-07-20T01:46:46;101643.03;;;21.48;62.30
75006;BME280;63553;51.814;4.600;2023-07-20T01:49:11;101642.72;;;21.53;61.83
75006;BME280;63553;51.814;4.600;2023-07-20T01:51:36;101654.31;;;21.68;61.31
75006;BME280;63553;51.814;4.600;2023-07-20T01:54:02;101644.44;;;21.58;61.40
75006;BME280;63553;51.814;4.600;2023-07-20T01:56:27;101647.69;;;21.37;61.83
75006;BME280;63553;51.814;4.600;2023-07-20T01:58:53;101652.16;;;21.61;61.30
75006;BME280;63553;51.814;4.600;2023-07-20T02:01:18;101651.38;;;21.41;61.90
75006;BME280;63553;51.814;4.600;2023-07-20T02:03:43;101640.63;;;21.28;62.13
75006;BME280;63553;51.814;4.600;2023-07-20T02:06:09;101658.59;;;19.92;62.27
75006;BME280;63553;51.814;4.600;2023-07-20T02:08:34;101651.34;;;19.91;66.79
75006;BME280;63553;51.814;4.600;2023-07-20T02:10:59;101654.34;;;19.67;65.26
75006;BME280;63553;51.814;4.600;2023-07-20T02:13:25;101659.06;;;19.79;67.38
75006;BME280;63553;51.814;4.600;2023-07-20T02:15:50;101661.41;;;19.92;63.50
75006;BME280;63553;51.814;4.600;2023-07-20T02:18:16;101658.63;;;19.61;65.38
75006;BME280;63553;51.814;4.600;2023-07-20T02:20:41;101658.66;;;19.33;64.65
75006;BME280;63553;51.814;4.600;2023-07-20T02:23:07;101657.19;;;18.16;69.74
75006;BME280;63553;51.814;4.600;2023-07-20T02:25:32;101659.41;;;17.74;72.20
75006;BME280;63553;51.814;4.600;2023-07-20T02:27:58;101665.97;;;18.03;71.45
75006;BME280;63553;51.814;4.600;2023-07-20T02:30:24;101658.94;;;17.60;72.13
75006;BME280;63553;51.814;4.600;2023-07-20T02:32:49;101654.81;;;17.58;73.55
75006;BME280;63553;51.814;4.600;2023-07-20T02:35:15;101661.31;;;18.99;71.06
75006;BME280;63553;51.814;4.600;2023-07-20T02:37:41;101665.25;;;19.84;67.26
75006;BME280;63553;51.814;4.600;2023-07-20T02:40:06;101666.03;;;20.32;65.64
75006;BME280;63553;51.814;4.600;2023-07-20T02:42:33;101673.16;;;20.61;64.24
75006;BME280;63553;51.814;4.600;2023-07-20T02:45:02;101681.88;;;20.36;61.44
75006;BME280;63553;51.814;4.600;2023-07-20T02:47:28;101684.72;;;19.42;65.57
75006;BME280;63553;51.814;4.600;2023-07-20T02:49:54;101682.63;;;19.12;67.95
75006;BME280;63553;51.814;4.600;2023-07-20T02:52:19;101679.69;;;18.53;67.05
75006;BME280;63553;51.814;4.600;2023-07-20T02:54:45;101682.72;;;18.36;70.62
75006;BME280;63553;51.814;4.600;2023-07-20T02:57:10;101684.50;;;19.35;68.49
75006;BME280;63553;51.814;4.600;2023-07-20T02:59:35;101683.31;;;19.36;66.59
75006;BME280;63553;51.814;4.600;2023-07-20T03:02:01;101689.88;;;18.97;67.77
75006;BME280;63553;51.814;4.600;2023-07-20T03:04:26;101690.75;;;18.85;67.95
75006;BME280;63553;51.814;4.600;2023-07-20T03:06:52;101700.00;;;18.10;69.65
75006;BME280;63553;51.814;4.600;2023-07-20T03:09:18;101689.53;;;17.62;70.80
75006;BME280;63553;51.814;4.600;2023-07-20T03:11:43;101683.94;;;17.41;72.34
75006;BME280;63553;51.814;4.600;2023-07-20T03:14:08;101691.47;;;17.16;73.02
75006;BME280;63553;51.814;4.600;2023-07-20T03:16:35;101684.09;;;17.12;73.28
75006;BME280;63553;51.814;4.600;2023-07-20T03:19:01;101687.22;;;16.98;74.40
75006;BME280;63553;51.814;4.600;2023-07-20T03:21:26;101692.84;;;16.57;75.39
75006;BME280;63553;51.814;4.600;2023-07-20T03:23:52;101686.13;;;16.70;74.94
75006;BME280;63553;51.814;4.600;2023-07-20T03:26:17;101690.66;;;16.62;75.74
75006;BME280;63553;51.814;4.600;2023-07-20T03:28:42;101703.09;;;16.53;76.37
75006;BME280;63553;51.814;4.600;2023-07-20T03:31:08;101700.59;;;16.51;76.79
75006;BME280;63553;51.814;4.600;2023-07-20T03:33:33;101698.88;;;16.88;75.80
75006;BME280;63553;51.814;4.600;2023-07-20T03:35:59;101691.88;;;17.27;75.43
75006;BME280;63553;51.814;4.600;2023-07-20T03:38:26;101690.56;;;16.92;74.65
75006;BME280;63553;51.814;4.600;2023-07-20T03:41:00;101694.47;;;17.32;75.07
75006;BME280;63553;51.814;4.600;2023-07-20T03:43:27;101692.50;;;18.14;72.54
75006;BME280;63553;51.814;4.600;2023-07-20T03:45:53;101688.59;;;18.30;70.65
75006;BME280;63553;51.814;4.600;2023-07-20T03:48:21;101688.38;;;17.63;70.89
75006;BME280;63553;51.814;4.600;2023-07-20T03:50:48;101689.34;;;17.01;72.84
75006;BME280;63553;51.814;4.600;2023-07-20T03:53:14;101692.84;;;17.43;72.90
75006;BME280;63553;51.814;4.600;2023-07-20T03:55:41;101690.44;;;18.39;70.26
75006;BME280;63553;51.814;4.600;2023-07-20T03:58:09;101693.59;;;19.01;68.53
75006;BME280;63553;51.814;4.600;2023-07-20T04:00:34;101701.13;;;19.53;67.17
75006;BME280;63553;51.814;4.600;2023-07-20T04:03:00;101699.56;;;19.55;64.58
75006;BME280;63553;51.814;4.600;2023-07-20T04:05:26;101707.84;;;17.80;69.33
75006;BME280;63553;51.814;4.600;2023-07-20T04:07:51;101705.88;;;17.15;72.06
75006;BME280;63553;51.814;4.600;2023-07-20T04:10:17;101702.06;;;16.99;76.54
75006;BME280;63553;51.814;4.600;2023-07-20T04:12:44;101697.38;;;17.68;72.00
75006;BME280;63553;51.814;4.600;2023-07-20T04:15:10;101710.88;;;17.30;72.61
75006;BME280;63553;51.814;4.600;2023-07-20T04:17:35;101702.19;;;17.80;71.85
75006;BME280;63553;51.814;4.600;2023-07-20T04:20:01;101702.44;;;18.23;69.98
75006;BME280;63553;51.814;4.600;2023-07-20T04:22:26;101705.22;;;18.60;68.65
75006;BME280;63553;51.814;4.600;2023-07-20T04:24:52;101706.13;;;19.04;67.08
75006;BME280;63553;51.814;4.600;2023-07-20T04:27:17;101721.22;;;19.51;65.81
75006;BME280;63553;51.814;4.600;2023-07-20T04:29:43;101709.94;;;19.67;64.75
75006;BME280;63553;51.814;4.600;2023-07-20T04:32:10;101705.94;;;19.99;63.33
75006;BME280;63553;51.814;4.600;2023-07-20T04:34:36;101707.97;;;19.83;63.99
75006;BME280;63553;51.814;4.600;2023-07-20T04:37:03;101713.22;;;19.53;65.15
75006;BME280;63553;51.814;4.600;2023-07-20T04:39:29;101700.94;;;19.18;66.90
75006;BME280;63553;51.814;4.600;2023-07-20T04:41:54;101710.09;;;19.15;66.76
75006;BME280;63553;51.814;4.600;2023-07-20T04:44:21;101712.22;;;19.18;66.86
75006;BME280;63553;51.814;4.600;2023-07-20T04:46:46;101725.66;;;19.24;66.76
75006;BME280;63553;51.814;4.600;2023-07-20T04:49:12;101721.66;;;18.98;67.77
75006;BME280;63553;51.814;4.600;2023-07-20T04:51:38;101720.13;;;18.36;70.11
75006;BME280;63553;51.814;4.600;2023-07-20T04:54:05;101708.88;;;18.36;70.28
75006;BME280;63553;51.814;4.600;2023-07-20T04:56:30;101710.88;;;18.23;71.88
75006;BME280;63553;51.814;4.600;2023-07-20T04:58:55;101716.03;;;18.21;71.95
75006;BME280;63553;51.814;4.600;2023-07-20T05:01:22;101709.00;;;18.03;72.71
75006;BME280;63553;51.814;4.600;2023-07-20T05:03:48;101713.69;;;18.23;72.22
75006;BME280;63553;51.814;4.600;2023-07-20T05:06:14;101712.28;;;18.29;72.07
75006;BME280;63553;51.814;4.600;2023-07-20T05:08:41;101716.16;;;18.37;71.78
75006;BME280;63553;51.814;4.600;2023-07-20T05:11:08;101704.53;;;18.26;72.55
75006;BME280;63553;51.814;4.600;2023-07-20T05:13:33;101703.38;;;18.15;73.34
75006;BME280;63553;51.814;4.600;2023-07-20T05:15:59;101700.56;;;18.27;72.68
75006;BME280;63553;51.814;4.600;2023-07-20T05:18:24;101705.78;;;18.77;70.31
75006;BME280;63553;51.814;4.600;2023-07-20T05:20:51;101702.97;;;18.65;70.61
75006;BME280;63553;51.814;4.600;2023-07-20T05:23:18;101713.25;;;19.84;66.22
75006;BME280;63553;51.814;4.600;2023-07-20T05:25:43;101713.31;;;19.57;66.53
75006;BME280;63553;51.814;4.600;2023-07-20T05:28:09;101710.88;;;19.71;66.32
75006;BME280;63553;51.814;4.600;2023-07-20T05:30:35;101711.31;;;20.35;64.20
75006;BME280;63553;51.814;4.600;2023-07-20T05:33:01;101707.41;;;20.40;63.76
75006;BME280;63553;51.814;4.600;2023-07-20T05:35:26;101711.13;;;20.98;61.65
75006;BME280;63553;51.814;4.600;2023-07-20T05:37:52;101702.13;;;20.92;61.96
75006;BME280;63553;51.814;4.600;2023-07-20T05:40:17;101699.72;;;21.33;60.24
75006;BME280;63553;51.814;4.600;2023-07-20T05:42:45;101698.84;;;21.29;60.35
75006;BME280;63553;51.814;4.600;2023-07-20T05:45:30;101697.69;;;21.52;59.62
75006;BME280;63553;51.814;4.600;2023-07-20T05:47:56;101687.25;;;21.56;59.22
75006;BME280;63553;51.814;4.600;2023-07-20T05:50:21;101698.44;;;21.72;59.61
75006;BME280;63553;51.814;4.600;2023-07-20T05:52:47;101695.22;;;21.74;59.01
75006;BME280;63553;51.814;4.600;2023-07-20T05:55:13;101703.38;;;21.98;58.40
75006;BME280;63553;51.814;4.600;2023-07-20T05:57:39;101707.59;;;22.07;57.68
75006;BME280;63553;51.814;4.600;2023-07-20T06:00:07;101720.63;;;22.38;56.95
75006;BME280;63553;51.814;4.600;2023-07-20T06:02:33;101717.03;;;23.27;54.40
75006;BME280;63553;51.814;4.600;2023-07-20T06:04:59;101713.47;;;23.37;54.02
75006;BME280;63553;51.814;4.600;2023-07-20T06:07:24;101718.69;;;23.32;54.15
75006;BME280;63553;51.814;4.600;2023-07-20T06:09:49;101714.94;;;22.91;55.13
75006;BME280;63553;51.814;4.600;2023-07-20T06:12:15;101722.03;;;22.78;55.64
75006;BME280;63553;51.814;4.600;2023-07-20T06:14:40;101715.44;;;22.44;55.94
75006;BME280;63553;51.814;4.600;2023-07-20T06:17:06;101725.81;;;21.87;58.80
75006;BME280;63553;51.814;4.600;2023-07-20T06:19:31;101718.84;;;22.79;56.33
75006;BME280;63553;51.814;4.600;2023-07-20T06:21:56;101713.25;;;23.19;55.78
75006;BME280;63553;51.814;4.600;2023-07-20T06:24:22;101716.03;;;23.86;53.11
75006;BME280;63553;51.814;4.600;2023-07-20T06:26:47;101724.78;;;24.58;51.26
75006;BME280;63553;51.814;4.600;2023-07-20T06:29:13;101716.56;;;23.58;53.28
75006;BME280;63553;51.814;4.600;2023-07-20T06:31:38;101711.16;;;22.80;55.87
75006;BME280;63553;51.814;4.600;2023-07-20T06:34:03;101729.16;;;22.15;56.56
75006;BME280;63553;51.814;4.600;2023-07-20T06:36:29;101725.81;;;22.33;58.11
75006;BME280;63553;51.814;4.600;2023-07-20T06:38:55;101729.63;;;21.95;62.78
75006;BME280;63553;51.814;4.600;2023-07-20T06:41:20;101733.84;;;21.63;58.93
75006;BME280;63553;51.814;4.600;2023-07-20T06:43:46;101729.97;;;21.29;62.22
75006;BME280;63553;51.814;4.600;2023-07-20T06:46:12;101725.50;;;21.28;61.89
75006;BME280;63553;51.814;4.600;2023-07-20T06:48:37;101722.50;;;21.21;62.79
75006;BME280;63553;51.814;4.600;2023-07-20T06:51:02;101721.31;;;20.48;62.92
75006;BME280;63553;51.814;4.600;2023-07-20T06:53:29;101723.72;;;21.20;63.52
75006;BME280;63553;51.814;4.600;2023-07-20T06:55:54;101718.81;;;21.17;62.51
75006;BME280;63553;51.814;4.600;2023-07-20T06:58:22;101714.28;;;20.96;59.06
75006;BME280;63553;51.814;4.600;2023-07-20T07:00:48;101721.56;;;21.13;61.87
75006;BME280;63553;51.814;4.600;2023-07-20T07:03:13;101731.81;;;21.82;61.14
75006;BME280;63553;51.814;4.600;2023-07-20T07:05:39;101728.66;;;22.10;59.95
75006;BME280;63553;51.814;4.600;2023-07-20T07:08:05;101728.66;;;22.10;58.02
75006;BME280;63553;51.814;4.600;2023-07-20T07:10:30;101731.47;;;22.59;59.35
75006;BME280;63553;51.814;4.600;2023-07-20T07:12:55;101736.28;;;22.81;59.05
75006;BME280;63553;51.814;4.600;2023-07-20T07:15:21;101732.25;;;22.30;59.58
75006;BME280;63553;51.814;4.600;2023-07-20T07:17:46;101738.28;;;22.54;59.65
75006;BME280;63553;51.814;4.600;2023-07-20T07:20:11;101729.63;;;21.95;58.55
75006;BME280;63553;51.814;4.600;2023-07-20T07:22:37;101736.66;;;21.82;59.90
75006;BME280;63553;51.814;4.600;2023-07-20T07:25:03;101741.00;;;21.98;59.09
75006;BME280;63553;51.814;4.600;2023-07-20T07:27:29;101736.31;;;22.32;60.13
75006;BME280;63553;51.814;4.600;2023-07-20T07:29:54;101743.88;;;22.25;58.74
75006;BME280;63553;51.814;4.600;2023-07-20T07:32:23;101740.97;;;22.70;57.90
75006;BME280;63553;51.814;4.600;2023-07-20T07:34:49;101745.19;;;22.57;57.74
75006;BME280;63553;51.814;4.600;2023-07-20T07:37:14;101743.72;;;22.40;58.57
75006;BME280;63553;51.814;4.600;2023-07-20T07:39:40;101732.59;;;22.54;58.08
75006;BME280;63553;51.814;4.600;2023-07-20T07:42:05;101747.75;;;21.48;59.39
75006;BME280;63553;51.814;4.600;2023-07-20T07:44:31;101750.00;;;20.85;60.55
75006;BME280;63553;51.814;4.600;2023-07-20T07:46:56;101751.56;;;20.64;60.93
75006;BME280;63553;51.814;4.600;2023-07-20T07:49:22;101751.03;;;21.31;61.69
75006;BME280;63553;51.814;4.600;2023-07-20T07:51:47;101757.53;;;20.78;60.99
75006;BME280;63553;51.814;4.600;2023-07-20T07:54:13;101756.13;;;19.90;61.80
75006;BME280;63553;51.814;4.600;2023-07-20T07:56:39;101756.50;;;20.20;62.62
75006;BME280;63553;51.814;4.600;2023-07-20T07:59:04;101761.91;;;19.66;61.66
75006;BME280;63553;51.814;4.600;2023-07-20T08:01:30;101753.06;;;20.26;61.97
75006;BME280;63553;51.814;4.600;2023-07-20T08:03:55;101761.06;;;20.24;61.13
75006;BME280;63553;51.814;4.600;2023-07-20T08:06:21;101756.19;;;21.26;59.03
75006;BME280;63553;51.814;4.600;2023-07-20T08:08:47;101760.25;;;22.61;56.31
75006;BME280;63553;51.814;4.600;2023-07-20T08:11:12;101756.34;;;22.69;56.29
75006;BME280;63553;51.814;4.600;2023-07-20T08:13:38;101756.38;;;21.36;56.37
75006;BME280;63553;51.814;4.600;2023-07-20T08:16:03;101755.31;;;21.64;56.28
75006;BME280;63553;51.814;4.600;2023-07-20T08:18:29;101759.13;;;20.79;57.15
75006;BME280;63553;51.814;4.600;2023-07-20T08:20:54;101749.53;;;21.79;56.32
75006;BME280;63553;51.814;4.600;2023-07-20T08:23:19;101757.41;;;20.90;57.34
75006;BME280;63553;51.814;4.600;2023-07-20T08:25:45;101763.44;;;20.38;59.68
75006;BME280;63553;51.814;4.600;2023-07-20T08:28:11;101768.84;;;20.97;58.21
75006;BME280;63553;51.814;4.600;2023-07-20T08:30:46;101761.19;;;20.28;59.18
75006;BME280;63553;51.814;4.600;2023-07-20T08:33:16;101762.47;;;21.57;57.29
75006;BME280;63553;51.814;4.600;2023-07-20T08:35:44;101759.50;;;21.12;56.51
75006;BME280;63553;51.814;4.600;2023-07-20T08:38:10;101754.66;;;21.93;57.36
75006;BME280;63553;51.814;4.600;2023-07-20T08:40:40;101758.06;;;22.02;56.68
75006;BME280;63553;51.814;4.600;2023-07-20T08:43:05;101749.94;;;22.49;54.98
75006;BME280;63553;51.814;4.600;2023-07-20T08:45:33;101750.25;;;22.67;54.82
75006;BME280;63553;51.814;4.600;2023-07-20T08:48:00;101758.31;;;22.91;54.39
75006;BME280;63553;51.814;4.600;2023-07-20T08:50:26;101752.16;;;22.86;53.88
75006;BME280;63553;51.814;4.600;2023-07-20T08:52:55;101763.69;;;23.00;53.59
75006;BME280;63553;51.814;4.600;2023-07-20T08:55:22;101750.22;;;22.93;53.61
75006;BME280;63553;51.814;4.600;2023-07-20T08:57:50;101749.00;;;21.93;54.46
75006;BME280;63553;51.814;4.600;2023-07-20T09:00:19;101750.66;;;22.65;54.98
75006;BME280;63553;51.814;4.600;2023-07-20T09:02:45;101751.31;;;22.85;53.62
75006;BME280;63553;51.814;4.600;2023-07-20T09:05:11;101741.94;;;23.41;51.15
75006;BME280;63553;51.814;4.600;2023-07-20T09:07:39;101744.16;;;23.98;50.78
75006;BME280;63553;51.814;4.600;2023-07-20T09:10:05;101739.78;;;23.31;51.66
75006;BME280;63553;51.814;4.600;2023-07-20T09:12:35;101744.47;;;24.30;49.56
75006;BME280;63553;51.814;4.600;2023-07-20T09:15:00;101742.94;;;25.05;46.83
75006;BME280;63553;51.814;4.600;2023-07-20T09:17:26;101738.38;;;24.90;47.11
75006;BME280;63553;51.814;4.600;2023-07-20T09:19:52;101740.34;;;25.68;45.14
75006;BME280;63553;51.814;4.600;2023-07-20T09:22:17;101729.75;;;25.62;46.31
75006;BME280;63553;51.814;4.600;2023-07-20T09:24:43;101729.81;;;26.43;44.34
75006;BME280;63553;51.814;4.600;2023-07-20T09:27:09;101735.44;;;26.89;42.76
75006;BME280;63553;51.814;4.600;2023-07-20T09:29:53;101738.66;;;24.16;46.65
75006;BME280;63553;51.814;4.600;2023-07-20T09:32:19;101729.84;;;26.15;44.21
75006;BME280;63553;51.814;4.600;2023-07-20T09:34:51;101724.94;;;26.22;44.84
75006;BME280;63553;51.814;4.600;2023-07-20T09:37:23;101729.81;;;26.50;44.64
75006;BME280;63553;51.814;4.600;2023-07-20T09:39:51;101733.72;;;25.43;45.97
75006;BME280;63553;51.814;4.600;2023-07-20T09:42:17;101725.59;;;25.45;45.69
75006;BME280;63553;51.814;4.600;2023-07-20T09:44:43;101736.50;;;25.15;46.01
75006;BME280;63553;51.814;4.600;2023-07-20T09:47:09;101742.81;;;24.29;49.13
75006;BME280;63553;51.814;4.600;2023-07-20T09:49:40;101732.00;;;23.57;50.26
75006;BME280;63553;51.814;4.600;2023-07-20T09:52:08;101732.69;;;23.88;49.51
75006;BME280;63553;51.814;4.600;2023-07-20T09:54:37;101736.34;;;24.32;47.74
75006;BME280;63553;51.814;4.600;2023-07-20T09:57:03;101737.81;;;23.38;47.57
75006;BME280;63553;51.814;4.600;2023-07-20T09:59:32;101735.03;;;23.08;50.02
75006;BME280;63553;51.814;4.600;2023-07-20T10:01:58;101737.53;;;23.47;48.67
75006;BME280;63553;51.814;4.600;2023-07-20T10:04:26;101735.41;;;24.17;47.89
75006;BME280;63553;51.814;4.600;2023-07-20T10:06:55;101737.13;;;24.25;48.22
75006;BME280;63553;51.814;4.600;2023-07-20T10:09:22;101731.88;;;24.31;48.02
75006;BME280;63553;51.814;4.600;2023-07-20T10:11:53;101729.47;;;24.33;48.58
75006;BME280;63553;51.814;4.600;2023-07-20T10:14:20;101733.03;;;23.42;49.87
75006;BME280;63553;51.814;4.600;2023-07-20T10:16:55;101724.13;;;23.44;49.60
75006;BME280;63553;51.814;4.600;2023-07-20T10:19:26;101727.75;;;23.11;50.34
75006;BME280;63553;51.814;4.600;2023-07-20T10:22:07;101725.94;;;24.03;47.67
75006;BME280;63553;51.814;4.600;2023-07-20T10:24:36;101721.84;;;24.00;48.81
75006;BME280;63553;51.814;4.600;2023-07-20T10:27:02;101724.66;;;24.41;47.96
75006;BME280;63553;51.814;4.600;2023-07-20T10:29:29;101726.59;;;24.29;47.52
75006;BME280;63553;51.814;4.600;2023-07-20T10:31:55;101719.22;;;23.77;48.54
75006;BME280;63553;51.814;4.600;2023-07-20T10:34:22;101723.41;;;24.38;47.53
75006;BME280;63553;51.814;4.600;2023-07-20T10:36:47;101721.41;;;24.42;46.29
75006;BME280;63553;51.814;4.600;2023-07-20T10:39:27;101716.66;;;24.09;47.83
75006;BME280;63553;51.814;4.600;2023-07-20T10:42:10;101715.72;;;23.95;48.42
75006;BME280;63553;51.814;4.600;2023-07-20T10:44:39;101713.47;;;24.14;47.90
75006;BME280;63553;51.814;4.600;2023-07-20T10:47:12;101708.22;;;24.16;47.77
75006;BME280;63553;51.814;4.600;2023-07-20T10:50:00;101714.78;;;24.24;47.21
75006;BME280;63553;51.814;4.600;2023-07-20T10:52:25;101702.88;;;23.67;48.89
75006;BME280;63553;51.814;4.600;2023-07-20T10:54:50;101704.44;;;23.28;49.64
75006;BME280;63553;51.814;4.600;2023-07-20T10:57:30;101708.50;;;23.64;49.02
75006;BME280;63553;51.814;4.600;2023-07-20T11:00:10;101704.97;;;23.74;49.27
75006;BME280;63553;51.814;4.600;2023-07-20T11:02:47;101712.91;;;23.54;49.71
75006;BME280;63553;51.814;4.600;2023-07-20T11:07:56;101713.78;;;23.62;49.47
75006;BME280;63553;51.814;4.600;2023-07-20T11:10:22;101711.88;;;23.76;48.95
75006;BME280;63553;51.814;4.600;2023-07-20T11:13:16;101706.06;;;24.06;48.79
75006;BME280;63553;51.814;4.600;2023-07-20T11:16:18;101705.06;;;23.85;49.19
75006;BME280;63553;51.814;4.600;2023-07-20T11:18:36;101701.75;;;23.79;49.63
75006;BME280;63553;51.814;4.600;2023-07-20T11:21:07;101698.44;;;23.70;49.47
75006;BME280;63553;51.814;4.600;2023-07-20T11:23:33;101694.31;;;23.64;48.75
75006;BME280;63553;51.814;4.600;2023-07-20T11:25:59;101689.88;;;23.63;48.10
75006;BME280;63553;51.814;4.600;2023-07-20T11:28:25;101685.72;;;23.53;48.66
75006;BME280;63553;51.814;4.600;2023-07-20T11:30:52;101691.88;;;23.62;49.69
75006;BME280;63553;51.814;4.600;2023-07-20T11:33:18;101677.38;;;23.38;50.05
75006;BME280;63553;51.814;4.600;2023-07-20T11:35:45;101688.09;;;23.14;50.11
75006;BME280;63553;51.814;4.600;2023-07-20T11:38:13;101683.06;;;23.01;49.82
75006;BME280;63553;51.814;4.600;2023-07-20T11:40:43;101686.63;;;23.28;50.01
75006;BME280;63553;51.814;4.600;2023-07-20T11:43:13;101680.22;;;23.38;49.79
75006;BME280;63553;51.814;4.600;2023-07-20T11:45:39;101680.13;;;23.27;50.12
75006;BME280;63553;51.814;4.600;2023-07-20T11:48:05;101683.22;;;23.15;50.02
75006;BME280;63553;51.814;4.600;2023-07-20T11:50:30;101676.81;;;22.88;50.27
75006;BME280;63553;51.814;4.600;2023-07-20T11:52:56;101676.41;;;22.90;50.41
75006;BME280;63553;51.814;4.600;2023-07-20T11:55:22;101688.41;;;22.76;50.61
75006;BME280;63553;51.814;4.600;2023-07-20T11:58:06;101687.16;;;22.74;50.60
75006;BME280;63553;51.814;4.600;2023-07-20T12:00:33;101688.28;;;22.65;50.75
75006;BME280;63553;51.814;4.600;2023-07-20T12:02:59;101691.34;;;22.57;50.82
75006;BME280;63553;51.814;4.600;2023-07-20T12:05:24;101676.53;;;22.97;49.81
75006;BME280;63553;51.814;4.600;2023-07-20T12:07:51;101680.59;;;22.99;49.86
75006;BME280;63553;51.814;4.600;2023-07-20T12:10:26;101676.34;;;23.16;49.62
75006;BME280;63553;51.814;4.600;2023-07-20T12:12:52;101679.00;;;23.02;50.39
75006;BME280;63553;51.814;4.600;2023-07-20T12:15:24;101682.78;;;23.46;48.94
75006;BME280;63553;51.814;4.600;2023-07-20T12:17:56;101675.97;;;23.17;50.58
75006;BME280;63553;51.814;4.600;2023-07-20T12:20:32;101671.88;;;23.15;49.77
75006;BME280;63553;51.814;4.600;2023-07-20T12:23:12;101674.31;;;23.50;49.44
75006;BME280;63553;51.814;4.600;2023-07-20T12:25:38;101667.34;;;23.84;48.25
75006;BME280;63553;51.814;4.600;2023-07-20T12:28:09;101658.88;;;23.47;48.41
75006;BME280;63553;51.814;4.600;2023-07-20T12:30:34;101673.72;;;23.37;49.43
75006;BME280;63553;51.814;4.600;2023-07-20T12:33:01;101664.25;;;23.22;49.88
75006;BME280;63553;51.814;4.600;2023-07-20T12:35:28;101660.69;;;22.96;46.34
75006;BME280;63553;51.814;4.600;2023-07-20T12:37:53;101670.44;;;22.65;48.41
75006;BME280;63553;51.814;4.600;2023-07-20T12:40:19;101665.16;;;23.30;47.42
75006;BME280;63553;51.814;4.600;2023-07-20T12:42:44;101659.09;;;23.32;48.78
75006;BME280;63553;51.814;4.600;2023-07-20T12:45:10;101646.03;;;23.60;47.97
75006;BME280;63553;51.814;4.600;2023-07-20T12:47:36;101654.41;;;23.46;49.07
75006;BME280;63553;51.814;4.600;2023-07-20T12:50:02;101654.94;;;23.59;47.31
75006;BME280;63553;51.814;4.600;2023-07-20T12:52:31;101654.59;;;23.67;47.46
75006;BME280;63553;51.814;4.600;2023-07-20T12:54:56;101658.94;;;23.17;48.81